createdAt,value
2018-11-29T00:01:13.767Z,3.00
2018-11-29T00:03:43.055Z,3.00
2018-11-29T00:06:12.548Z,3.00
2018-11-29T00:08:42.273Z,3.00
2018-11-29T00:11:11.631Z,3.00
2018-11-29T00:13:44.884Z,3.00
2018-11-29T00:16:14.187Z,3.00
2018-11-29T00:18:43.703Z,3.00
2018-11-29T00:21:13.393Z,3.00
2018-11-29T00:23:43.025Z,3.00
2018-11-29T00:26:12.337Z,3.00
2018-11-29T00:28:41.734Z,3.00
2018-11-29T00:31:11.064Z,3.00
2018-11-29T00:33:40.332Z,3.00
2018-11-29T00:36:09.923Z,3.00
2018-11-29T00:38:39.234Z,3.00
2018-11-29T00:41:08.527Z,3.10
2018-11-29T00:43:38.015Z,3.10
2018-11-29T00:46:14.670Z,3.10
2018-11-29T00:48:44.524Z,3.10
2018-11-29T00:51:13.704Z,3.00
2018-11-29T00:53:43.003Z,3.10
2018-11-29T00:56:12.649Z,3.10
2018-11-29T00:58:42.002Z,3.10
2018-11-29T01:01:11.200Z,3.10
2018-11-29T01:03:42.814Z,3.10
2018-11-29T01:06:12.057Z,3.10
2018-11-29T01:08:41.298Z,3.10
2018-11-29T01:11:10.977Z,3.10
2018-11-29T01:13:40.176Z,3.20
2018-11-29T01:16:09.593Z,3.10
2018-11-29T01:18:39.276Z,3.20
2018-11-29T01:21:08.705Z,3.10
2018-11-29T01:23:38.012Z,3.10
2018-11-29T01:26:08.156Z,3.10
2018-11-29T01:28:37.573Z,3.10
2018-11-29T01:31:06.814Z,3.20
2018-11-29T01:33:36.420Z,3.20
2018-11-29T01:36:06.207Z,3.20
2018-11-29T01:38:35.567Z,3.10
2018-11-29T01:41:05.348Z,3.10
2018-11-29T01:43:34.576Z,3.00
2018-11-29T01:46:03.953Z,3.00
2018-11-29T01:48:33.700Z,3.10
2018-11-29T01:51:03.009Z,3.10
2018-11-29T01:53:34.962Z,2.90
2018-11-29T01:56:04.396Z,2.90
2018-11-29T01:58:33.953Z,3.00
2018-11-29T02:01:03.550Z,3.00
2018-11-29T02:03:33.236Z,3.00
2018-11-29T02:06:02.475Z,3.00
2018-11-29T02:08:32.057Z,3.00
2018-11-29T02:11:01.422Z,3.00
2018-11-29T02:13:35.589Z,3.00
2018-11-29T02:16:05.065Z,3.00
2018-11-29T02:18:34.752Z,2.80
2018-11-29T02:21:04.453Z,2.80
2018-11-29T02:23:33.899Z,2.80
2018-11-29T02:26:03.197Z,2.80
2018-11-29T02:28:32.813Z,2.80
2018-11-29T02:31:02.654Z,2.70
2018-11-29T02:33:31.905Z,2.70
2018-11-29T02:36:01.305Z,2.70
2018-11-29T02:38:30.833Z,2.60
2018-11-29T02:41:00.123Z,2.70
2018-11-29T02:43:29.540Z,2.70
2018-11-29T02:45:59.882Z,2.80
2018-11-29T02:48:29.165Z,2.70
2018-11-29T02:50:59.053Z,2.70
2018-11-29T02:53:28.367Z,2.60
2018-11-29T02:55:57.744Z,2.60
2018-11-29T02:58:27.328Z,2.70
2018-11-29T03:00:56.652Z,2.70
2018-11-29T03:03:25.895Z,2.70
2018-11-29T03:05:55.601Z,2.60
2018-11-29T03:08:24.880Z,2.70
2018-11-29T03:10:54.162Z,2.70
2018-11-29T03:13:27.820Z,2.70
2018-11-29T03:15:57.086Z,2.60
2018-11-29T03:18:26.358Z,2.60
2018-11-29T03:20:55.930Z,2.70
2018-11-29T03:23:25.328Z,2.70
2018-11-29T03:25:54.553Z,2.60
2018-11-29T03:28:24.490Z,2.60
2018-11-29T03:30:53.728Z,2.60
2018-11-29T03:33:22.993Z,2.60
2018-11-29T03:35:52.508Z,2.50
2018-11-29T03:38:21.710Z,2.60
2018-11-29T03:40:51.022Z,2.70
2018-11-29T03:43:20.637Z,2.60
2018-11-29T03:45:50.311Z,2.60
2018-11-29T03:48:21.895Z,2.60
2018-11-29T03:50:51.186Z,2.60
2018-11-29T03:53:22.098Z,2.50
2018-11-29T03:55:52.321Z,2.50
2018-11-29T03:58:25.746Z,2.50
2018-11-29T04:00:55.482Z,2.60
2018-11-29T04:03:24.957Z,2.50
2018-11-29T04:05:54.234Z,2.50
2018-11-29T04:08:23.743Z,2.60
2018-11-29T04:10:52.974Z,2.60
2018-11-29T04:13:22.262Z,2.60
2018-11-29T04:15:51.970Z,2.50
2018-11-29T04:18:21.308Z,2.50
2018-11-29T04:20:56.757Z,2.40
2018-11-29T04:23:26.054Z,2.50
2018-11-29T04:25:55.322Z,2.40
2018-11-29T04:28:24.662Z,2.40
2018-11-29T04:30:54.334Z,2.50
2018-11-29T04:33:23.832Z,2.50
2018-11-29T04:35:55.450Z,2.60
2018-11-29T04:38:24.778Z,2.50
2018-11-29T04:40:54.087Z,2.50
2018-11-29T04:43:23.640Z,2.40
2018-11-29T04:46:04.278Z,2.40
2018-11-29T04:48:33.748Z,2.30
2018-11-29T04:51:02.952Z,2.30
2018-11-29T04:53:38.957Z,2.30
2018-11-29T04:56:08.193Z,2.30
2018-11-29T04:58:37.836Z,2.50
2018-11-29T05:01:07.513Z,2.50
2018-11-29T05:03:36.804Z,2.60
2018-11-29T05:06:06.443Z,2.60
2018-11-29T05:08:36.028Z,2.60
2018-11-29T05:11:05.364Z,2.60
2018-11-29T05:13:34.812Z,2.60
2018-11-29T05:16:04.452Z,2.60
2018-11-29T05:18:33.784Z,2.60
2018-11-29T05:21:03.190Z,2.60
2018-11-29T05:23:33.078Z,2.60
2018-11-29T05:26:02.392Z,2.50
2018-11-29T05:28:32.524Z,2.50
2018-11-29T05:31:02.167Z,2.60
2018-11-29T05:33:31.608Z,2.50
2018-11-29T05:36:00.906Z,2.50
2018-11-29T05:38:30.480Z,2.50
2018-11-29T05:40:59.831Z,2.60
2018-11-29T05:43:29.143Z,2.60
2018-11-29T05:45:58.716Z,2.60
2018-11-29T05:48:28.038Z,2.50
2018-11-29T05:50:57.302Z,2.50
2018-11-29T05:53:26.816Z,2.40
2018-11-29T05:55:56.101Z,2.40
2018-11-29T05:58:25.364Z,2.30
2018-11-29T06:00:54.947Z,2.40
2018-11-29T06:03:24.420Z,2.40
2018-11-29T06:05:53.777Z,2.40
2018-11-29T06:08:23.286Z,2.40
2018-11-29T06:10:53.181Z,2.40
2018-11-29T06:13:22.712Z,2.40
2018-11-29T06:15:52.365Z,2.40
2018-11-29T06:18:21.656Z,2.40
2018-11-29T06:20:50.917Z,2.40
2018-11-29T06:23:20.322Z,2.50
2018-11-29T06:25:49.570Z,2.40
2018-11-29T06:28:19.036Z,2.40
2018-11-29T06:30:48.500Z,2.40
2018-11-29T06:33:17.868Z,2.50
2018-11-29T06:35:47.514Z,2.40
2018-11-29T06:38:17.180Z,2.40
2018-11-29T06:40:46.404Z,2.40
2018-11-29T06:43:15.703Z,2.50
2018-11-29T06:45:44.980Z,2.60
2018-11-29T06:48:14.076Z,2.70
2018-11-29T06:50:43.293Z,2.80
2018-11-29T06:53:18.142Z,2.80
2018-11-29T06:55:47.488Z,2.80
2018-11-29T06:58:16.960Z,2.80
2018-11-29T07:00:46.124Z,2.90
2018-11-29T07:03:15.892Z,2.90
2018-11-29T07:05:45.028Z,2.90
2018-11-29T07:08:14.336Z,2.90
2018-11-29T07:10:43.665Z,2.80
2018-11-29T07:13:12.804Z,2.90
2018-11-29T07:15:42.165Z,2.90
2018-11-29T07:18:11.322Z,2.80
2018-11-29T07:20:40.450Z,2.80
2018-11-29T07:23:09.784Z,2.90
2018-11-29T07:25:38.948Z,2.90
2018-11-29T07:28:08.061Z,3.00
2018-11-29T07:30:43.163Z,3.00
2018-11-29T07:33:12.303Z,3.00
2018-11-29T07:35:41.473Z,2.90
2018-11-29T07:38:15.444Z,2.80
2018-11-29T07:40:44.608Z,2.90
2018-11-29T07:43:13.700Z,2.90
2018-11-29T07:45:43.192Z,3.00
2018-11-29T07:48:12.332Z,3.00
2018-11-29T07:50:41.451Z,3.00
2018-11-29T07:53:10.920Z,3.10
2018-11-29T07:55:40.190Z,3.00
2018-11-29T07:58:09.304Z,3.00
2018-11-29T08:00:38.890Z,3.10
2018-11-29T08:03:08.039Z,3.10
2018-11-29T08:05:41.610Z,3.10
2018-11-29T08:08:10.721Z,3.10
2018-11-29T08:10:40.182Z,3.10
2018-11-29T08:13:09.691Z,3.10
2018-11-29T08:15:39.021Z,3.10
2018-11-29T08:18:07.911Z,3.20
2018-11-29T08:20:37.426Z,3.20
2018-11-29T08:23:06.544Z,3.30
2018-11-29T08:25:43.838Z,3.40
2018-11-29T08:28:12.952Z,3.40
2018-11-29T08:30:42.570Z,3.50
2018-11-29T08:33:11.827Z,3.50
2018-11-29T08:35:40.995Z,3.60
2018-11-29T08:38:10.108Z,3.70
2018-11-29T08:40:39.438Z,3.80
2018-11-29T08:43:08.602Z,3.90
2018-11-29T08:45:37.747Z,3.90
2018-11-29T08:48:12.712Z,3.90
2018-11-29T08:50:41.834Z,4.00
2018-11-29T08:53:11.140Z,4.00
2018-11-29T08:55:40.467Z,4.10
2018-11-29T08:58:09.546Z,4.20
2018-11-29T09:00:39.925Z,4.20
2018-11-29T09:03:09.459Z,4.30
2018-11-29T09:05:38.625Z,4.40
2018-11-29T09:08:07.730Z,4.40
2018-11-29T09:10:40.846Z,4.40
2018-11-29T09:13:10.050Z,4.40
2018-11-29T09:15:39.116Z,4.30
2018-11-29T09:18:08.662Z,4.10
2018-11-29T09:20:37.748Z,4.10
2018-11-29T09:23:07.365Z,4.20
2018-11-29T09:25:40.318Z,4.30
2018-11-29T09:28:09.472Z,4.30
2018-11-29T09:30:38.568Z,4.30
2018-11-29T09:33:07.982Z,4.40
2018-11-29T09:35:37.126Z,4.50
2018-11-29T09:38:06.264Z,4.60
2018-11-29T09:40:37.676Z,4.70
2018-11-29T09:43:06.838Z,4.80
2018-11-29T09:45:36.074Z,4.80
2018-11-29T09:48:05.472Z,4.80
2018-11-29T09:50:34.877Z,4.90
2018-11-29T09:53:04.029Z,5.00
2018-11-29T09:55:33.568Z,5.10
2018-11-29T09:58:02.694Z,5.10
2018-11-29T10:00:35.463Z,5.10
2018-11-29T10:03:10.091Z,5.10
2018-11-29T10:05:39.845Z,5.10
2018-11-29T10:08:12.059Z,5.20
2018-11-29T10:10:39.019Z,5.20
2018-11-29T10:13:12.487Z,5.10
2018-11-29T10:15:41.918Z,5.20
2018-11-29T10:18:11.500Z,5.00
2018-11-29T10:20:40.788Z,5.00
2018-11-29T10:23:10.075Z,5.20
2018-11-29T10:25:41.546Z,5.30
2018-11-29T10:28:14.044Z,5.30
2018-11-29T10:30:47.834Z,5.40
2018-11-29T10:33:16.946Z,5.40
2018-11-29T10:35:46.122Z,5.40
2018-11-29T10:38:15.833Z,5.50
2018-11-29T10:40:44.967Z,5.50
2018-11-29T10:43:14.076Z,5.50
2018-11-29T10:45:43.668Z,5.50
2018-11-29T10:48:14.481Z,5.50
2018-11-29T10:50:43.676Z,5.50
2018-11-29T10:53:18.720Z,5.50
2018-11-29T10:55:47.937Z,5.40
2018-11-29T10:58:17.044Z,5.40
2018-11-29T11:00:52.027Z,5.50
2018-11-29T11:03:21.713Z,5.40
2018-11-29T11:05:58.466Z,5.40
2018-11-29T11:08:27.614Z,5.50
2018-11-29T11:10:56.961Z,5.50
2018-11-29T11:13:26.323Z,5.50
2018-11-29T11:15:56.507Z,5.60
2018-11-29T11:18:25.683Z,5.60
2018-11-29T11:20:55.749Z,5.60
2018-11-29T11:23:24.868Z,5.70
2018-11-29T11:26:02.072Z,5.80
2018-11-29T11:28:31.185Z,5.90
2018-11-29T11:31:00.325Z,5.80
2018-11-29T11:33:29.629Z,5.90
2018-11-29T11:35:58.839Z,5.90
2018-11-29T11:38:27.963Z,5.90
2018-11-29T11:41:01.033Z,6.00
2018-11-29T11:43:30.179Z,6.10
2018-11-29T11:45:59.399Z,6.30
2018-11-29T11:48:28.656Z,6.30
2018-11-29T11:50:58.043Z,6.40
2018-11-29T11:53:27.448Z,6.60
2018-11-29T11:55:56.845Z,6.60
2018-11-29T11:58:25.929Z,6.70
2018-11-29T12:00:55.029Z,6.80
2018-11-29T12:03:24.417Z,6.80
2018-11-29T12:05:53.487Z,6.90
2018-11-29T12:08:22.815Z,6.90
2018-11-29T12:10:52.605Z,6.90
2018-11-29T12:13:25.028Z,6.90
2018-11-29T12:15:54.329Z,6.90
2018-11-29T12:18:23.671Z,7.00
2018-11-29T12:20:52.779Z,7.00
2018-11-29T12:23:22.279Z,7.10
2018-11-29T12:25:51.516Z,7.00
2018-11-29T12:28:20.685Z,6.90
2018-11-29T12:30:50.913Z,6.90
2018-11-29T12:33:20.030Z,6.90
2018-11-29T12:35:51.364Z,7.00
2018-11-29T12:38:20.657Z,7.00
2018-11-29T12:40:49.771Z,7.10
2018-11-29T12:43:18.910Z,7.10
2018-11-29T12:45:48.458Z,7.00
2018-11-29T12:48:17.591Z,7.00
2018-11-29T12:50:46.735Z,7.00
2018-11-29T12:53:16.077Z,7.00
2018-11-29T12:55:45.656Z,6.90
2018-11-29T12:58:14.818Z,6.90
2018-11-29T13:00:44.110Z,6.90
2018-11-29T13:03:13.194Z,6.80
2018-11-29T13:05:43.477Z,6.80
2018-11-29T13:08:13.003Z,6.70
2018-11-29T13:10:48.157Z,6.70
2018-11-29T13:13:17.609Z,6.70
2018-11-29T13:15:52.602Z,6.70
2018-11-29T13:18:22.044Z,6.70
2018-11-29T13:21:00.541Z,6.70
2018-11-29T13:23:29.851Z,6.70
2018-11-29T13:25:58.994Z,6.60
2018-11-29T13:28:28.246Z,6.60
2018-11-29T13:30:57.543Z,6.50
2018-11-29T13:33:26.647Z,6.50
2018-11-29T13:35:55.778Z,6.50
2018-11-29T13:38:25.040Z,6.50
2018-11-29T13:40:57.151Z,6.60
2018-11-29T13:43:26.417Z,6.60
2018-11-29T13:45:55.544Z,6.70
2018-11-29T13:48:24.690Z,6.70
2018-11-29T13:50:53.985Z,6.60
2018-11-29T13:53:23.130Z,6.60
2018-11-29T13:55:52.277Z,6.60
2018-11-29T13:58:21.497Z,6.50
2018-11-29T14:00:50.589Z,6.40
2018-11-29T14:03:23.383Z,6.40
2018-11-29T14:05:52.471Z,6.30
2018-11-29T14:08:21.580Z,6.20
2018-11-29T14:10:51.080Z,6.20
2018-11-29T14:13:20.139Z,6.20
2018-11-29T14:15:49.294Z,6.20
2018-11-29T14:18:18.617Z,6.20
2018-11-29T14:20:47.741Z,6.10
2018-11-29T14:23:16.877Z,6.00
2018-11-29T14:25:46.208Z,6.00
2018-11-29T14:28:15.336Z,5.90
2018-11-29T14:30:44.865Z,5.90
2018-11-29T14:33:14.378Z,5.90
2018-11-29T14:35:50.508Z,5.90
2018-11-29T14:38:19.917Z,5.80
2018-11-29T14:40:49.040Z,5.90
2018-11-29T14:43:18.451Z,5.90
2018-11-29T14:45:47.814Z,5.80
2018-11-29T14:48:18.984Z,6.00
2018-11-29T14:50:48.476Z,5.90
2018-11-29T14:53:17.599Z,5.90
2018-11-29T14:55:50.655Z,5.90
2018-11-29T14:58:20.102Z,5.90
2018-11-29T15:00:48.948Z,5.80
2018-11-29T15:03:21.848Z,5.80
2018-11-29T15:05:52.159Z,5.80
2018-11-29T15:08:21.267Z,5.80
2018-11-29T15:10:50.596Z,5.80
2018-11-29T15:13:19.684Z,5.90
2018-11-29T15:15:48.769Z,5.70
2018-11-29T15:18:18.169Z,5.70
2018-11-29T15:20:48.394Z,5.70
2018-11-29T15:23:19.109Z,5.70
2018-11-29T15:25:48.273Z,5.70
2018-11-29T15:28:17.387Z,5.60
2018-11-29T15:30:46.894Z,5.70
2018-11-29T15:33:21.316Z,5.90
2018-11-29T15:35:50.636Z,5.90
2018-11-29T15:38:19.757Z,5.90
2018-11-29T15:40:49.217Z,5.70
2018-11-29T15:43:18.852Z,5.60
2018-11-29T15:45:48.589Z,5.60
2018-11-29T15:48:17.910Z,5.50
2018-11-29T15:50:47.618Z,5.40
2018-11-29T15:53:17.241Z,5.50
2018-11-29T15:55:46.744Z,5.50
2018-11-29T15:58:16.211Z,5.50
2018-11-29T16:00:45.786Z,5.50
2018-11-29T16:03:15.293Z,5.50
2018-11-29T16:05:48.466Z,5.50
2018-11-29T16:08:17.683Z,5.40
2018-11-29T16:10:46.883Z,5.50
2018-11-29T16:13:16.481Z,5.40
2018-11-29T16:15:45.602Z,5.30
2018-11-29T16:18:14.859Z,5.40
2018-11-29T16:23:38.968Z,5.20
2018-11-29T16:26:08.279Z,5.10
2018-11-29T16:28:37.747Z,4.90
2018-11-29T16:31:08.804Z,4.90
2018-11-29T16:33:39.435Z,5.00
2018-11-29T16:36:10.363Z,5.00
2018-11-29T16:38:39.600Z,5.00
2018-11-29T16:41:08.990Z,5.10
2018-11-29T16:43:38.692Z,5.10
2018-11-29T16:46:12.081Z,5.00
2018-11-29T16:48:41.567Z,4.90
2018-11-29T16:51:10.886Z,5.00
2018-11-29T16:53:43.627Z,4.90
2018-11-29T16:56:12.879Z,4.90
2018-11-29T17:01:37.075Z,4.80
2018-11-29T17:04:06.718Z,4.80
2018-11-29T17:06:35.983Z,4.80
2018-11-29T17:09:09.008Z,4.70
2018-11-29T17:11:38.463Z,4.70
2018-11-29T17:14:12.193Z,4.60
2018-11-29T17:16:41.506Z,4.60
2018-11-29T17:19:10.972Z,4.60
2018-11-29T17:24:48.552Z,4.60
2018-11-29T17:27:17.879Z,4.50
2018-11-29T17:29:47.101Z,4.40
2018-11-29T17:32:16.636Z,4.40
2018-11-29T17:34:51.518Z,4.30
2018-11-29T17:37:21.128Z,4.30
2018-11-29T17:39:56.287Z,4.40
2018-11-29T17:42:25.768Z,4.50
2018-11-29T17:44:58.264Z,4.40
2018-11-29T17:47:30.258Z,4.40
2018-11-29T17:49:59.612Z,4.40
2018-11-29T17:52:33.021Z,4.40
2018-11-29T17:55:02.413Z,4.40
2018-11-29T17:57:31.704Z,4.40
2018-11-29T18:00:01.345Z,4.30
2018-11-29T18:02:30.833Z,4.30
2018-11-29T18:05:00.169Z,4.40
2018-11-29T18:07:29.844Z,4.20
2018-11-29T18:10:13.950Z,4.20
2018-11-29T18:12:43.465Z,4.20
2018-11-29T18:15:16.567Z,4.20
2018-11-29T18:17:46.203Z,4.20
2018-11-29T18:20:15.491Z,4.10
2018-11-29T18:22:44.884Z,4.20
2018-11-29T18:25:15.237Z,4.10
2018-11-29T18:27:49.740Z,4.10
2018-11-29T18:30:20.532Z,4.00
2018-11-29T18:32:50.032Z,4.00
2018-11-29T18:35:31.309Z,4.00
2018-11-29T18:38:00.682Z,4.10
2018-11-29T18:40:40.246Z,4.10
2018-11-29T18:43:10.906Z,4.10
2018-11-29T18:45:40.717Z,4.00
2018-11-29T18:48:11.223Z,3.90
2018-11-29T18:50:43.028Z,3.80
2018-11-29T18:53:12.889Z,3.90
2018-11-29T18:55:44.616Z,3.80
2018-11-29T18:58:14.410Z,3.80
2018-11-29T19:00:44.130Z,3.70
2018-11-29T19:03:13.660Z,3.70
2018-11-29T19:05:47.938Z,3.80
2018-11-29T19:08:17.428Z,3.70
2018-11-29T19:10:47.494Z,3.70
2018-11-29T19:13:17.272Z,3.70
2018-11-29T19:15:46.879Z,3.70
2018-11-29T19:18:16.564Z,3.70
2018-11-29T19:20:47.086Z,3.60
2018-11-29T19:23:16.431Z,3.70
2018-11-29T19:25:47.252Z,3.70
2018-11-29T19:28:17.205Z,3.70
2018-11-29T19:30:48.866Z,3.70
2018-11-29T19:33:19.694Z,3.70
2018-11-29T19:35:52.660Z,3.70
2018-11-29T19:38:22.525Z,3.70
2018-11-29T19:40:52.169Z,3.70
2018-11-29T19:43:21.864Z,3.60
2018-11-29T19:45:52.907Z,3.70
2018-11-29T19:48:22.631Z,3.70
2018-11-29T19:50:51.922Z,3.70
2018-11-29T19:53:23.789Z,3.80
2018-11-29T19:55:57.656Z,3.80
2018-11-29T19:58:28.884Z,3.80
2018-11-29T20:00:58.421Z,3.70
2018-11-29T20:03:28.784Z,3.70
2018-11-29T20:05:58.364Z,3.70
2018-11-29T20:08:27.612Z,3.70
2018-11-29T20:10:57.016Z,3.70
2018-11-29T20:13:26.972Z,3.70
2018-11-29T20:15:57.540Z,3.70
2018-11-29T20:18:26.824Z,3.70
2018-11-29T20:20:56.530Z,3.70
2018-11-29T20:23:25.868Z,3.60
2018-11-29T20:25:55.378Z,3.60
2018-11-29T20:28:24.857Z,3.60
2018-11-29T20:30:54.184Z,3.60
2018-11-29T20:33:23.372Z,3.60
2018-11-29T20:35:53.290Z,3.60
2018-11-29T20:38:22.528Z,3.60
2018-11-29T20:40:51.750Z,3.60
2018-11-29T20:43:21.599Z,3.70
2018-11-29T20:45:54.898Z,3.60
2018-11-29T20:48:26.758Z,3.60
2018-11-29T20:50:57.161Z,3.60
2018-11-29T20:53:36.557Z,3.50
2018-11-29T20:56:07.754Z,3.40
2018-11-29T20:58:37.288Z,3.50
2018-11-29T21:01:07.760Z,3.40
2018-11-29T21:03:37.194Z,3.40
2018-11-29T21:06:13.848Z,3.30
2018-11-29T21:08:43.276Z,3.30
2018-11-29T21:11:14.288Z,3.30
2018-11-29T21:13:43.708Z,3.40
2018-11-29T21:16:13.974Z,3.40
2018-11-29T21:18:43.445Z,3.30
2018-11-29T21:21:12.678Z,3.20
2018-11-29T21:23:43.555Z,3.10
2018-11-29T21:26:13.066Z,3.10
2018-11-29T21:28:42.311Z,3.00
2018-11-29T21:31:11.558Z,3.00
2018-11-29T21:33:42.090Z,3.00
2018-11-29T21:36:12.584Z,3.00
2018-11-29T21:38:41.856Z,3.00
2018-11-29T21:41:11.138Z,2.90
2018-11-29T21:43:40.733Z,2.80
2018-11-29T21:46:16.203Z,2.80
2018-11-29T21:48:45.674Z,2.70
2018-11-29T21:51:14.934Z,2.70
2018-11-29T21:53:44.362Z,2.50
2018-11-29T21:56:13.674Z,2.50
2018-11-29T21:58:42.998Z,2.40
2018-11-29T22:01:17.514Z,2.40
2018-11-29T22:03:46.881Z,2.50
2018-11-29T22:06:20.070Z,2.40
2018-11-29T22:08:49.351Z,2.20
2018-11-29T22:11:18.708Z,2.30
2018-11-29T22:13:49.617Z,2.40
2018-11-29T22:16:18.870Z,2.40
2018-11-29T22:18:48.159Z,2.30
2018-11-29T22:21:17.561Z,2.30
2018-11-29T22:23:46.837Z,2.30
2018-11-29T22:26:16.843Z,2.50
2018-11-29T22:28:46.484Z,2.60
2018-11-29T22:31:15.743Z,2.60
2018-11-29T22:33:48.474Z,2.50
2018-11-29T22:36:17.713Z,2.60
2018-11-29T22:38:47.260Z,2.60
2018-11-29T22:41:16.841Z,2.60
2018-11-29T22:43:46.456Z,2.60
2018-11-29T22:46:15.690Z,2.70
2018-11-29T22:48:45.138Z,2.70
2018-11-29T22:51:14.374Z,2.60
2018-11-29T22:53:43.595Z,2.60
2018-11-29T22:56:13.073Z,2.50
2018-11-29T22:58:42.284Z,2.60
2018-11-29T23:01:17.040Z,2.60
2018-11-29T23:03:46.569Z,2.60
2018-11-29T23:06:16.076Z,2.60
2018-11-29T23:08:45.553Z,2.60
2018-11-29T23:11:24.261Z,2.70
2018-11-29T23:13:53.944Z,2.60
2018-11-29T23:16:28.882Z,2.70
2018-11-29T23:18:58.835Z,2.70
2018-11-29T23:21:31.780Z,2.60
2018-11-29T23:24:01.247Z,2.50
2018-11-29T23:26:32.896Z,2.50
2018-11-29T23:29:02.370Z,2.50
2018-11-29T23:31:31.614Z,2.50
2018-11-29T23:34:01.074Z,2.40
2018-11-29T23:36:30.682Z,2.50
2018-11-29T23:39:00.151Z,2.40
2018-11-29T23:41:29.656Z,2.50
2018-11-29T23:43:59.058Z,2.30
2018-11-29T23:46:28.366Z,2.30
2018-11-29T23:48:57.686Z,2.40
2018-11-29T23:51:27.276Z,2.40
2018-11-29T23:53:56.588Z,2.40
2018-11-29T23:56:25.890Z,2.40
2018-11-29T23:58:55.691Z,2.50
